Casper, WY (82601)

3:13 AM MST on December 06, 2016 (GMT -0700)
Grant Avenue | | Change Station

Elev 5164 ft 42.84 °N, 106.32 °W | Updated 7 minutes ago

Clear
Clear
9.7 °F
Feels Like 10 °F
N
0.6
Wind Variable Wind from SSE
Gusts 1.2 mph

Today
High -- | Low -- °F
--% Chance of Precip.
Yesterday
High -- | Low -- °F
Precip. -- in
Pressure 30.16 in
Visibility 10.0 miles
Clouds Clear
Windchill 10 °F
Dew Point 1 °F
Humidity 67%
Rainfall 0.00 in
Snow Depth Not available.
7:21 AM 4:31 PM
Waxing Crescent, 40% visible
METAR KCPR 060953Z AUTO 26009KT 10SM CLR M19/M21 A2991 RMK AO2 SLP211 T11941211
Pressure 30.16 in
Visibility 10.0 miles
Clouds Clear
Windchill 10 °F
Dew Point 1 °F
Humidity 67%
Rainfall 0.00 in
Snow Depth Not available.
7:21 AM 4:31 PM
Waxing Crescent, 40% visible
METAR KCPR 060953Z AUTO 26009KT 10SM CLR M19/M21 A2991 RMK AO2 SLP211 T11941211

10-Day Weather Forecast

Almanac

Astronomy

Dec. 06, 2016 Rise Set
Actual Time
Civil Twilight
Nautical Twilight
Astronomical Twilight
Moon
Length of Visible Light
Length of Day
Tomorrow will be .
, % of the Moon is Illuminated

Today's Extremes

State Highs State Lows

Community

WunderPhotos

Upload Photos

1,955,935 photos uploaded!

WunderBlog® & News

Nearby

Air Quality

  Air Quality AQ Index Pollutant
Not available.

Snow Depth

Station Depth Elevation

Earthquake Activity

City Distance Mag. Time & Date
Minimum magnitude displayed is 2.5.

Coastal Water Temperatures

Place Temperature

Stations

Nearby Weather Stations

Station Location Temp. Windchill Dew Point Humidity Wind Precip. Elev Updated Type
                   

Watches & Warnings

There are currently no watches in effect.